Angel Albino Corzo International Airport
MMTG : now visible

Airfield :











YOU CAN JOIN US ON...

 
LOGIN :

Register | Disclaimer

   EN    FR    IT 

 









Legend :    VFR   Marginal VFR   IFR   Intensive IFR   Very Intensive IFR
Visi :
Ceiling :
>= 8 km
>= 3000ft
5 to 8 km
1000 to 3000 ft
1500m to 5 km
500 to 1000 ft
800 to 1500m
200 to 500 ft
< 800m
< 200 ft
Symbols :   Thunderstorms  Fog  Heavy snow  Heavy precipitations  Wind > 20 kt






- Airport Elevation : 1499 ft


MMTG - Angel Albino Corzo International

CURRENT METAR :
  • 161346Z 10002KT 5SM BKN300 23/21 A3003 RMK 8/001 BCFG DSPTNG

EXPIRED METARs :
  • 161253Z 00000KT 5SM SCT300 22/20 A3002 RMK 8/001 BCFG ARND

TAF TAF MMTG
Valid from the 16 at 06:00 until the 17 at 06:00 UTC


160337Z 1606/1706 00000KT 6SM HZ SCT070 SCT300
FM161900 32010KT P6SM SCT030 SCT300
BECMG 1620/1621 BKN030CB BKN070 BKN300
TEMPO 1622/1702 5SM TSRA
MMFR FIR / North America



MET'MAP, your aeronautical weather chart ! - Copyright ORBIFLY December 2007 - Disclaimer

ORBIFLY MET'MAP TEAM :

Programming & Development : Alexandra Zaïnal
Concept & original design : Baudouin d'Aumeries
Assistance for programming : Marc-Olivier Méhu
Technical & hardware support : Manuel Goepfert

Contact : metmap@orbifly.com




SOURCES & CREDITS :

   NOAA       Earth
Advisory